createdAt,value
2022-11-20T00:01:32.045Z,99323.22
2022-11-20T00:04:00.132Z,99322.38
2022-11-20T00:06:31.744Z,99314.00
2022-11-20T00:09:03.366Z,99326.63
2022-11-20T00:11:32.574Z,99319.94
2022-11-20T00:14:02.280Z,99319.94
2022-11-20T00:16:32.541Z,99307.34
2022-11-20T00:18:59.242Z,99298.09
2022-11-20T00:21:28.894Z,99298.09
2022-11-20T00:23:57.762Z,99294.69
2022-11-20T00:26:27.423Z,99297.22
2022-11-20T00:28:58.188Z,99295.53
2022-11-20T00:31:25.645Z,99299.69
2022-11-20T00:33:53.089Z,99283.72
2022-11-20T00:36:27.079Z,99291.25
2022-11-20T00:38:55.966Z,99292.94
2022-11-20T00:41:24.430Z,99288.72
2022-11-20T00:43:54.604Z,99288.69
2022-11-20T00:46:25.404Z,99295.41
2022-11-20T00:48:52.230Z,99300.44
2022-11-20T00:51:24.735Z,99296.22
2022-11-20T00:53:59.203Z,99287.03
2022-11-20T00:56:26.884Z,99285.34
2022-11-20T01:01:48.520Z,99292.06
2022-11-20T01:04:15.777Z,99298.81
2022-11-20T01:06:42.665Z,99294.63
2022-11-20T01:09:14.466Z,99285.41
2022-11-20T01:11:45.114Z,99282.06
2022-11-20T01:14:18.077Z,99287.97
2022-11-20T01:16:51.382Z,99282.91
2022-11-20T01:19:22.544Z,99283.75
2022-11-20T01:21:53.760Z,99290.47
2022-11-20T01:24:22.745Z,99286.28
2022-11-20T01:26:52.103Z,99283.78
2022-11-20T01:29:24.513Z,99283.81
2022-11-20T01:31:53.348Z,99277.94
2022-11-20T01:34:23.147Z,99272.91
2022-11-20T01:36:53.623Z,99270.38
2022-11-20T01:39:24.847Z,99274.59
2022-11-20T01:42:13.009Z,99257.84
2022-11-20T01:45:01.075Z,99261.19
2022-11-20T01:47:41.633Z,99260.34
2022-11-20T01:50:25.769Z,99251.09
2022-11-20T01:53:00.835Z,99260.31
2022-11-20T01:55:33.976Z,99257.78
2022-11-20T01:58:02.591Z,99252.72
2022-11-20T02:00:29.693Z,99250.19
2022-11-20T02:03:06.108Z,99250.19
2022-11-20T02:05:50.414Z,99257.75
2022-11-20T02:08:19.009Z,99267.78
2022-11-20T02:10:45.785Z,99264.44
2022-11-20T02:13:38.183Z,99260.25
2022-11-20T02:16:09.460Z,99271.22
2022-11-20T02:18:36.823Z,99255.28
2022-11-20T02:21:14.707Z,99265.34
2022-11-20T02:24:00.242Z,99258.66
2022-11-20T02:26:30.540Z,99253.63
2022-11-20T02:29:00.090Z,99252.78
2022-11-20T02:31:26.793Z,99255.31
2022-11-20T02:33:59.494Z,99256.16
2022-11-20T02:36:31.086Z,99249.41
2022-11-20T02:38:57.808Z,99257.84
2022-11-20T02:41:34.157Z,99252.75
2022-11-20T02:44:01.473Z,99243.50
2022-11-20T02:46:28.411Z,99254.44
2022-11-20T02:48:55.189Z,99248.56
2022-11-20T02:51:21.961Z,99255.28
2022-11-20T02:53:48.769Z,99251.09
2022-11-20T02:56:16.421Z,99246.91
2022-11-20T02:58:43.261Z,99238.50
2022-11-20T03:01:10.061Z,99238.50
2022-11-20T03:03:36.845Z,99237.69
2022-11-20T03:06:03.926Z,99231.81
2022-11-20T03:08:30.643Z,99226.78
2022-11-20T03:10:57.484Z,99228.47
2022-11-20T03:13:25.812Z,99228.47
2022-11-20T03:15:52.578Z,99223.44
2022-11-20T03:18:19.395Z,99221.75
2022-11-20T03:20:46.103Z,99228.47
2022-11-20T03:23:13.087Z,99220.91
2022-11-20T03:25:39.816Z,99221.78
2022-11-20T03:28:06.586Z,99226.81
2022-11-20T03:30:33.372Z,99221.81
2022-11-20T03:33:00.686Z,99223.50
2022-11-20T03:35:27.445Z,99225.19
2022-11-20T03:37:54.211Z,99228.56
2022-11-20T03:40:21.001Z,99230.25
2022-11-20T03:42:47.854Z,99227.75
2022-11-20T03:45:18.985Z,99229.44
2022-11-20T03:47:46.654Z,99236.16
2022-11-20T03:50:14.943Z,99235.34
2022-11-20T03:52:42.465Z,99232.81
2022-11-20T03:55:09.902Z,99227.75
2022-11-20T03:57:36.672Z,99223.56
2022-11-20T04:00:05.958Z,99228.63
2022-11-20T04:02:32.729Z,99227.78
2022-11-20T04:04:59.545Z,99223.59
2022-11-20T04:07:26.311Z,99221.06
2022-11-20T04:09:53.072Z,99214.38
2022-11-20T04:12:19.788Z,99218.59
2022-11-20T04:14:46.639Z,99216.88
2022-11-20T04:17:13.472Z,99214.38
2022-11-20T04:19:40.233Z,99211.00
2022-11-20T04:22:07.058Z,99219.44
2022-11-20T04:24:36.941Z,99224.47
2022-11-20T04:27:04.137Z,99222.81
2022-11-20T04:29:30.865Z,99225.31
2022-11-20T04:31:57.673Z,99224.50
2022-11-20T04:34:24.686Z,99221.13
2022-11-20T04:36:51.455Z,99220.28
2022-11-20T04:39:18.366Z,99217.75
2022-11-20T04:41:45.514Z,99221.13
2022-11-20T04:44:12.480Z,99215.22
2022-11-20T04:46:43.052Z,99218.59
2022-11-20T04:49:12.353Z,99219.44
2022-11-20T04:51:41.869Z,99217.75
2022-11-20T04:54:12.119Z,99212.69
2022-11-20T04:56:38.891Z,99218.59
2022-11-20T04:59:05.647Z,99210.19
2022-11-20T05:01:33.566Z,99209.34
2022-11-20T05:04:03.357Z,99213.56
2022-11-20T05:06:30.237Z,99211.88
2022-11-20T05:08:56.969Z,99220.25
2022-11-20T05:11:24.163Z,99220.28
2022-11-20T05:13:52.869Z,99221.97
2022-11-20T05:16:24.889Z,99224.50
2022-11-20T05:18:55.080Z,99222.78
2022-11-20T05:21:24.735Z,99221.97
2022-11-20T05:23:51.602Z,99226.19
2022-11-20T05:26:25.244Z,99220.28
2022-11-20T05:28:52.892Z,99227.00
2022-11-20T05:31:27.604Z,99223.66
2022-11-20T05:33:57.793Z,99226.19
2022-11-20T05:36:25.298Z,99221.13
2022-11-20T05:38:56.694Z,99219.44
2022-11-20T05:41:26.910Z,99214.38
2022-11-20T05:43:53.878Z,99216.94
2022-11-20T05:46:28.745Z,99209.38
2022-11-20T05:48:57.902Z,99212.72
2022-11-20T05:51:28.386Z,99199.28
2022-11-20T05:53:57.564Z,99202.63
2022-11-20T05:56:24.492Z,99208.53
2022-11-20T05:58:51.378Z,99199.25
2022-11-20T06:01:23.675Z,99211.03
2022-11-20T06:03:52.016Z,99208.53
2022-11-20T06:06:20.618Z,99209.34
2022-11-20T06:08:48.014Z,99220.31
2022-11-20T06:11:15.912Z,99216.91
2022-11-20T06:13:43.437Z,99212.72
2022-11-20T06:16:13.408Z,99214.41
2022-11-20T06:18:40.625Z,99217.78
2022-11-20T06:21:16.055Z,99212.72
2022-11-20T06:23:43.796Z,99219.44
2022-11-20T06:26:27.392Z,99230.34
2022-11-20T06:28:56.975Z,99229.53
2022-11-20T06:31:26.671Z,99234.59
2022-11-20T06:33:54.166Z,99235.41
2022-11-20T06:36:23.866Z,99235.41
2022-11-20T06:38:51.710Z,99237.91
2022-11-20T06:41:21.460Z,99239.63
2022-11-20T06:43:48.702Z,99248.00
2022-11-20T06:46:20.446Z,99248.88
2022-11-20T06:48:49.431Z,99252.22
2022-11-20T06:51:16.830Z,99248.88
2022-11-20T06:53:43.648Z,99253.06
2022-11-20T06:56:10.492Z,99248.03
2022-11-20T06:58:38.044Z,99250.53
2022-11-20T07:01:14.944Z,99257.28
2022-11-20T07:03:43.791Z,99249.69
2022-11-20T07:06:11.787Z,99251.38
2022-11-20T07:08:39.129Z,99248.84
2022-11-20T07:11:09.159Z,99248.84
2022-11-20T07:13:36.368Z,99245.50
2022-11-20T07:16:07.843Z,99250.50
2022-11-20T07:18:35.539Z,99248.84
2022-11-20T07:21:11.383Z,99248.84
2022-11-20T07:23:38.766Z,99248.84
2022-11-20T07:26:09.253Z,99243.81
2022-11-20T07:28:37.344Z,99241.28
2022-11-20T07:31:05.971Z,99244.63
2022-11-20T07:33:33.431Z,99238.75
2022-11-20T07:36:01.964Z,99238.75
2022-11-20T07:38:29.899Z,99236.25
2022-11-20T07:41:02.632Z,99233.72
2022-11-20T07:43:30.433Z,99231.19
2022-11-20T07:45:59.155Z,99237.97
2022-11-20T07:48:27.062Z,99234.59
2022-11-20T07:50:57.836Z,99231.25
2022-11-20T07:53:24.987Z,99236.28
2022-11-20T07:55:53.741Z,99228.72
2022-11-20T07:58:22.475Z,99228.72
2022-11-20T08:00:49.516Z,99225.34
2022-11-20T08:03:21.673Z,99222.81
2022-11-20T08:05:51.966Z,99233.75
2022-11-20T08:08:18.794Z,99231.22
2022-11-20T08:10:48.449Z,99227.88
2022-11-20T08:13:34.244Z,99235.44
2022-11-20T08:16:01.115Z,99241.31
2022-11-20T08:18:32.542Z,99237.13
2022-11-20T08:21:04.698Z,99238.81
2022-11-20T08:23:32.400Z,99237.13
2022-11-20T08:25:59.545Z,99239.66
2022-11-20T08:28:28.000Z,99240.47
2022-11-20T08:31:03.283Z,99228.72
2022-11-20T08:33:31.101Z,99227.03
2022-11-20T08:36:03.311Z,99233.75
2022-11-20T08:38:31.567Z,99232.09
2022-11-20T08:41:21.790Z,99231.25
2022-11-20T08:43:55.417Z,99222.84
2022-11-20T08:46:25.025Z,99218.63
2022-11-20T08:48:54.012Z,99220.28
2022-11-20T08:51:22.726Z,99214.38
2022-11-20T08:53:49.896Z,99219.44
2022-11-20T08:56:18.379Z,99228.69
2022-11-20T08:59:16.078Z,99231.19
2022-11-20T09:01:42.892Z,99224.44
2022-11-20T09:04:09.765Z,99236.25
2022-11-20T09:06:36.698Z,99225.28
2022-11-20T09:11:51.578Z,99221.88
2022-11-20T09:14:18.687Z,99217.66
2022-11-20T09:16:47.500Z,99221.00
2022-11-20T09:19:35.909Z,99220.94
2022-11-20T09:22:01.790Z,99209.97
2022-11-20T09:24:29.198Z,99213.31
2022-11-20T09:26:56.056Z,99209.03
2022-11-20T09:29:37.358Z,99208.97
2022-11-20T09:32:04.964Z,99204.72
2022-11-20T09:34:33.230Z,99201.28
2022-11-20T09:37:07.662Z,99196.16
2022-11-20T09:39:47.554Z,99196.97
2022-11-20T09:42:42.104Z,99191.88
2022-11-20T09:45:45.355Z,99187.66
2022-11-20T09:48:12.387Z,99191.00
2022-11-20T09:51:15.785Z,99188.50
2022-11-20T09:54:09.930Z,99188.47
2022-11-20T09:56:44.063Z,99188.44
2022-11-20T09:59:43.864Z,99186.75
2022-11-20T10:02:54.064Z,99179.16
2022-11-20T10:05:29.110Z,99169.06
2022-11-20T10:08:23.732Z,99174.91
2022-11-20T10:11:15.196Z,99172.38
2022-11-20T10:13:58.487Z,99164.75
2022-11-20T10:16:53.029Z,99162.97
2022-11-20T10:20:00.640Z,99158.69
2022-11-20T10:23:15.597Z,99165.41
2022-11-20T10:26:20.766Z,99154.41
2022-11-20T10:29:14.626Z,99146.75
2022-11-20T10:31:57.253Z,99142.47
2022-11-20T10:34:48.294Z,99148.28
2022-11-20T10:37:25.990Z,99147.34
2022-11-20T10:40:03.735Z,99146.47
2022-11-20T10:42:45.420Z,99140.53
2022-11-20T10:45:28.084Z,99137.09
2022-11-20T10:48:25.728Z,99127.78
2022-11-20T10:51:30.537Z,99120.16
2022-11-20T10:54:41.871Z,99117.59
2022-11-20T10:57:48.953Z,99115.19
2022-11-20T11:00:20.200Z,99102.53
2022-11-20T11:02:54.098Z,99099.25
2022-11-20T11:05:51.340Z,99106.03
2022-11-20T11:08:20.954Z,99089.28
2022-11-20T11:10:57.506Z,99086.81
2022-11-20T11:13:55.831Z,99075.06
2022-11-20T11:16:27.288Z,99069.22
2022-11-20T11:19:37.659Z,99070.09
2022-11-20T11:22:28.832Z,99065.06
2022-11-20T11:24:56.157Z,99057.53
2022-11-20T11:27:34.897Z,99053.28
2022-11-20T11:30:16.311Z,99054.97
2022-11-20T11:32:44.241Z,99041.47
2022-11-20T11:35:30.120Z,99038.94
2022-11-20T11:38:08.586Z,99031.34
2022-11-20T11:40:41.004Z,99022.03
2022-11-20T11:43:41.785Z,99019.50
2022-11-20T11:46:35.225Z,99022.91
2022-11-20T11:49:14.909Z,99010.25
2022-11-20T11:52:03.101Z,99006.06
2022-11-20T11:55:10.267Z,99005.25
2022-11-20T11:57:45.289Z,99006.06
2022-11-20T12:00:26.307Z,98995.91
2022-11-20T12:03:19.877Z,99002.59
2022-11-20T12:05:57.372Z,99004.25
2022-11-20T12:08:53.145Z,98997.53
2022-11-20T12:11:35.664Z,99001.75
2022-11-20T12:14:15.297Z,98988.19
2022-11-20T12:16:42.960Z,98984.78
2022-11-20T12:19:14.994Z,98975.44
2022-11-20T12:22:16.720Z,98977.94
2022-11-20T12:25:02.302Z,98970.31
2022-11-20T12:27:47.162Z,98966.94
2022-11-20T12:30:18.291Z,98966.13
2022-11-20T12:32:59.895Z,98964.41
2022-11-20T12:36:04.424Z,98954.34
2022-11-20T12:38:41.082Z,98949.34
2022-11-20T12:41:45.520Z,98955.25
2022-11-20T12:45:13.007Z,98947.66
2022-11-20T12:47:56.509Z,98946.84
2022-11-20T12:51:15.571Z,98928.28
2022-11-20T12:54:54.313Z,98928.28
2022-11-20T12:57:38.945Z,98928.28
2022-11-20T13:00:15.295Z,98922.28
2022-11-20T13:03:35.165Z,98915.34
2022-11-20T13:06:18.044Z,98912.78
2022-11-20T13:09:00.087Z,98904.22
2022-11-20T13:11:42.347Z,98901.53
2022-11-20T13:14:23.201Z,98892.13
2022-11-20T13:17:20.173Z,98897.81
2022-11-20T13:19:59.732Z,98884.22
2022-11-20T13:22:46.865Z,98889.13
2022-11-20T13:25:39.006Z,98872.16
2022-11-20T13:28:29.959Z,98870.41
2022-11-20T13:30:59.267Z,98870.25
2022-11-20T13:33:31.376Z,98865.97
2022-11-20T13:36:08.014Z,98845.69
2022-11-20T13:38:59.335Z,98858.34
2022-11-20T13:41:40.701Z,98853.25
2022-11-20T13:44:29.427Z,98851.47
2022-11-20T13:59:42.015Z,98826.41
2022-11-20T14:02:18.382Z,98818.66
2022-11-20T14:04:54.678Z,98813.34
2022-11-20T14:07:28.638Z,98803.91
2022-11-20T14:09:58.038Z,98798.78
2022-11-20T14:12:32.940Z,98789.38
2022-11-20T14:15:00.896Z,98794.31
2022-11-20T14:17:35.836Z,98792.66
2022-11-20T14:20:11.032Z,98786.72
2022-11-20T14:22:40.017Z,98787.53
2022-11-20T14:25:16.815Z,98784.94
2022-11-20T14:27:55.502Z,98785.84
2022-11-20T14:30:45.961Z,98784.25
2022-11-20T14:33:26.622Z,98786.78
2022-11-20T14:36:02.915Z,98778.44
2022-11-20T14:38:33.616Z,98770.09
2022-11-20T14:41:33.230Z,98767.75
2022-11-20T14:44:03.720Z,98767.94
2022-11-20T14:46:33.767Z,98758.00
2022-11-20T14:49:05.127Z,98753.97
2022-11-20T14:51:42.422Z,98753.38
2022-11-20T14:54:23.958Z,98749.41
2022-11-20T14:57:04.439Z,98743.75
2022-11-20T14:59:36.128Z,98743.09
2022-11-20T15:02:11.520Z,98737.34
2022-11-20T15:05:00.441Z,98726.63
2022-11-20T15:07:31.544Z,98730.19
2022-11-20T15:10:22.446Z,98724.38
2022-11-20T15:12:56.836Z,98711.91
2022-11-20T15:16:16.980Z,98709.56
2022-11-20T15:18:44.723Z,98699.66
2022-11-20T15:21:33.196Z,98690.56
2022-11-20T15:24:01.486Z,98680.59
2022-11-20T15:26:29.423Z,98682.38
2022-11-20T15:29:22.340Z,98668.94
2022-11-20T15:32:13.338Z,98672.34
2022-11-20T15:34:41.341Z,98667.34
2022-11-20T15:37:08.281Z,98664.84
2022-11-20T15:39:35.127Z,98668.25
2022-11-20T15:42:02.039Z,98664.00
2022-11-20T15:44:28.965Z,98662.28
2022-11-20T15:46:56.048Z,98650.53
2022-11-20T15:49:24.791Z,98653.91
2022-11-20T15:51:53.653Z,98649.75
2022-11-20T15:54:23.755Z,98643.94
2022-11-20T15:56:53.316Z,98636.41
2022-11-20T15:59:20.271Z,98634.75
2022-11-20T16:01:47.311Z,98640.69
2022-11-20T16:04:17.696Z,98639.06
2022-11-20T16:06:44.647Z,98629.03
2022-11-20T16:09:15.083Z,98635.84
2022-11-20T16:11:41.898Z,98628.31
2022-11-20T16:14:30.573Z,98623.38
2022-11-20T16:17:00.158Z,98620.09
2022-11-20T16:19:29.872Z,98615.78
2022-11-20T16:22:02.978Z,98604.81
2022-11-20T16:24:30.408Z,98582.97
2022-11-20T16:26:57.917Z,98586.41
2022-11-20T16:29:25.022Z,98588.06
2022-11-20T16:31:53.167Z,98588.03
2022-11-20T16:34:20.053Z,98575.41
2022-11-20T16:36:46.958Z,98567.78
2022-11-20T16:39:17.808Z,98570.28
2022-11-20T16:41:53.573Z,98560.97
2022-11-20T16:44:22.379Z,98544.09
2022-11-20T16:46:49.656Z,98546.63
2022-11-20T16:49:17.554Z,98552.47
2022-11-20T16:51:44.538Z,98549.06
2022-11-20T16:54:16.485Z,98548.16
2022-11-20T16:56:48.060Z,98546.50
2022-11-20T16:59:14.987Z,98543.88
2022-11-20T17:01:43.155Z,98520.28
2022-11-20T17:04:10.210Z,98531.16
2022-11-20T17:06:47.839Z,98533.69
2022-11-20T17:09:14.875Z,98542.09
2022-11-20T17:11:41.918Z,98535.41
2022-11-20T17:14:13.282Z,98533.75
2022-11-20T17:16:40.209Z,98534.59
2022-11-20T17:19:07.315Z,98520.31
2022-11-20T17:21:36.454Z,98531.28
2022-11-20T17:24:07.033Z,98528.75
2022-11-20T17:26:35.552Z,98518.72
2022-11-20T17:29:07.184Z,98517.00
2022-11-20T17:31:35.724Z,98527.09
2022-11-20T17:34:03.111Z,98524.50
2022-11-20T17:36:30.670Z,98523.63
2022-11-20T17:38:58.349Z,98504.22
2022-11-20T17:41:28.424Z,98510.06
2022-11-20T17:44:01.163Z,98515.00
2022-11-20T17:46:33.455Z,98520.00
2022-11-20T17:49:01.612Z,98520.69
2022-11-20T17:51:32.262Z,98523.22
2022-11-20T17:54:06.546Z,98520.59
2022-11-20T17:56:54.337Z,98517.16
2022-11-20T17:59:22.013Z,98514.59
2022-11-20T18:01:49.338Z,98530.59
2022-11-20T18:04:16.887Z,98515.41
2022-11-20T18:06:44.236Z,98526.38
2022-11-20T18:09:12.215Z,98514.56
2022-11-20T18:11:42.314Z,98535.59
2022-11-20T18:14:35.160Z,98510.34
2022-11-20T18:17:06.399Z,98512.03
2022-11-20T18:19:42.608Z,98519.63
2022-11-20T18:22:14.126Z,98517.09
2022-11-20T18:24:45.365Z,98512.78
2022-11-20T18:27:21.005Z,98503.50
2022-11-20T18:29:51.951Z,98505.19
2022-11-20T18:32:22.751Z,98494.97
2022-11-20T18:34:51.395Z,98496.66
2022-11-20T18:37:19.189Z,98507.53
2022-11-20T18:39:50.481Z,98505.88
2022-11-20T18:42:36.547Z,98510.84
2022-11-20T18:45:05.059Z,98498.25
2022-11-20T18:47:38.727Z,98502.44
2022-11-20T18:50:08.613Z,98483.91
2022-11-20T18:52:44.691Z,98504.00
2022-11-20T18:55:12.887Z,98494.75
2022-11-20T18:57:44.548Z,98495.69
2022-11-20T19:00:12.378Z,98488.88
2022-11-20T19:02:42.584Z,98496.47
2022-11-20T19:05:13.172Z,98486.41
2022-11-20T19:07:41.642Z,98489.75
2022-11-20T19:10:09.399Z,98491.47
2022-11-20T19:12:36.667Z,98495.69
2022-11-20T19:15:05.861Z,98491.50
2022-11-20T19:17:34.229Z,98488.91
2022-11-20T19:20:01.333Z,98491.44
2022-11-20T19:22:29.865Z,98482.16
2022-11-20T19:24:59.801Z,98486.34
2022-11-20T19:27:26.575Z,98495.56
2022-11-20T19:29:54.910Z,98503.06
2022-11-20T19:32:22.031Z,98504.72
2022-11-20T19:34:49.321Z,98500.50
2022-11-20T19:37:16.790Z,98495.50
2022-11-20T19:39:44.095Z,98504.72
2022-11-20T19:42:12.149Z,98506.47
2022-11-20T19:44:39.370Z,98499.78
2022-11-20T19:47:14.846Z,98515.84
2022-11-20T19:49:42.221Z,98501.63
2022-11-20T19:52:09.371Z,98510.94
2022-11-20T19:54:36.268Z,98510.09
2022-11-20T19:57:03.340Z,98520.25
2022-11-20T19:59:30.722Z,98519.47
2022-11-20T20:01:58.344Z,98512.81
2022-11-20T20:04:33.321Z,98517.09
2022-11-20T20:07:02.656Z,98502.81
2022-11-20T20:09:30.640Z,98493.66
2022-11-20T20:11:57.660Z,98520.66
2022-11-20T20:14:24.915Z,98536.69
2022-11-20T20:16:51.888Z,98531.66
2022-11-20T20:19:20.074Z,98519.06
2022-11-20T20:21:48.009Z,98533.44
2022-11-20T20:24:15.051Z,98527.69
2022-11-20T20:26:42.491Z,98537.00
2022-11-20T20:29:09.382Z,98546.41
2022-11-20T20:31:36.909Z,98545.63
2022-11-20T20:34:05.232Z,98549.09
2022-11-20T20:36:32.196Z,98554.22
2022-11-20T20:38:59.838Z,98552.59
2022-11-20T20:41:29.019Z,98550.97
2022-11-20T20:44:14.567Z,98553.50
2022-11-20T20:46:41.915Z,98555.22
2022-11-20T20:49:13.998Z,98563.72
2022-11-20T20:51:41.025Z,98560.31
2022-11-20T20:54:07.940Z,98552.81
2022-11-20T20:56:34.783Z,98557.00
2022-11-20T20:59:01.928Z,98559.53
2022-11-20T21:01:29.293Z,98572.16
2022-11-20T21:03:57.461Z,98568.84
2022-11-20T21:06:25.241Z,98568.00
2022-11-20T21:08:52.405Z,98560.50
2022-11-20T21:11:20.771Z,98558.00
2022-11-20T21:13:48.907Z,98569.00
2022-11-20T21:16:18.589Z,98576.63
2022-11-20T21:18:45.530Z,98575.72
2022-11-20T21:21:33.327Z,98565.69
2022-11-20T21:24:00.706Z,98574.13
2022-11-20T21:26:27.752Z,98576.66
2022-11-20T21:28:56.121Z,98576.59
2022-11-20T21:31:26.496Z,98569.03
2022-11-20T21:33:55.839Z,98578.34
2022-11-20T21:36:31.137Z,98584.28
2022-11-20T21:38:59.599Z,98582.66
2022-11-20T21:41:30.242Z,98584.31
2022-11-20T21:44:29.635Z,98590.22
2022-11-20T21:46:46.406Z,98584.38
2022-11-20T21:49:14.592Z,98601.16
2022-11-20T21:51:41.795Z,98581.78
2022-11-20T21:54:11.134Z,98580.97
2022-11-20T21:56:38.056Z,98578.47
2022-11-20T21:59:04.844Z,98585.16
2022-11-20T22:01:32.078Z,98576.72
2022-11-20T22:04:06.343Z,98585.94
2022-11-20T22:06:34.816Z,98582.56
2022-11-20T22:09:02.922Z,98581.72
2022-11-20T22:16:03.433Z,98581.78
2022-11-20T22:18:30.221Z,98581.72
2022-11-20T22:20:57.020Z,98580.84
2022-11-20T22:23:23.806Z,98576.59
2022-11-20T22:25:50.592Z,98574.84
2022-11-20T22:28:17.328Z,98580.66
2022-11-20T22:30:44.040Z,98588.97
2022-11-20T22:33:13.852Z,98589.78
2022-11-20T22:35:40.834Z,98582.97
2022-11-20T22:38:07.647Z,98573.69
2022-11-20T22:40:34.373Z,98572.81
2022-11-20T22:43:03.331Z,98577.81
2022-11-20T22:45:32.432Z,98579.41
2022-11-20T22:47:59.515Z,98589.44
2022-11-20T22:50:26.366Z,98583.53
2022-11-20T22:52:53.421Z,98587.72
2022-11-20T22:55:20.157Z,98590.22
2022-11-20T22:57:46.988Z,98602.03
2022-11-20T23:00:14.760Z,98600.41
2022-11-20T23:02:46.468Z,98620.63
2022-11-20T23:05:13.473Z,98617.31
2022-11-20T23:07:41.250Z,98617.31
2022-11-20T23:10:08.809Z,98608.06
2022-11-20T23:12:35.519Z,98632.50
2022-11-20T23:15:02.418Z,98628.31
2022-11-20T23:17:29.943Z,98625.78
2022-11-20T23:19:56.651Z,98618.19
2022-11-20T23:22:23.449Z,98643.38
2022-11-20T23:24:50.197Z,98655.25
2022-11-20T23:27:19.643Z,98653.50
2022-11-20T23:29:46.718Z,98648.41
2022-11-20T23:32:13.517Z,98639.16
2022-11-20T23:34:40.325Z,98644.19
2022-11-20T23:37:07.107Z,98645.88
2022-11-20T23:39:33.866Z,98643.31
2022-11-20T23:42:00.686Z,98647.50
2022-11-20T23:44:27.964Z,98636.59
2022-11-20T23:46:54.814Z,98635.75
2022-11-20T23:49:21.544Z,98652.56
2022-11-20T23:51:48.460Z,98652.63
2022-11-20T23:54:15.170Z,98656.00
2022-11-20T23:56:41.885Z,98646.84
2022-11-20T23:59:08.664Z,98660.31
